• Back
  •  
  • Position of Reservoir Gates
S.No.
No. of opened gates
Position of opening (In m)
Reporting Date
Reporting Time
Discharge in Cumecs
Discharge in Cusecs
Actual date and time of Gate opening
1
2
3
4
5
6
7
8
1 5 8 30/08/2020 12:00:00 PM 1960 69217.4
2 14 7.5 30/08/2020 4:00:00 PM 7636 269665.34 7635.77 cumec
3 16 7.5 30/08/2020 8:00:00 PM 9263 327122.84
4 16 7.5 31/08/2020 12:00:00 AM 9263 327122.84 Gates Opened on Dated 30.08.2020 at 8.00 PM
5 6 8 31/08/2020 2:30:00 PM 3308 116822.02
6 3 8 31/08/2020 6:00:00 PM 1615 57033.72
7 3 8 01/09/2020 12:00:00 AM 1615 57033.72 31/08/2020 6.00 PM
8 0 0 01/09/2020 4:00:00 PM 0 0 ALL GATES ARE CLOSED
9 5 7.5 23/08/2016 12:00:00 AM 2724 96198.06 gate open 21/8/2016 8:30 PM
10 5 7.5 22/08/2016 12:00:00 AM 2724 96198.06 gate open 21/8/20160 8:30 PM
11 0 0 23/08/2016 9:00:00 AM 0 0 closed
12 1 7.5 28/08/2016 8:01:00 AM 545.7 19271.4 Gate opened at 22:30 on 27.08.2016
13 1 7.5 29/08/2016 12:00:00 AM 545 19246.67 Gate open-27/8/2016 10:30 PM
14 1 7.5 30/08/2016 12:00:00 AM 548 19352.62 Gate open-27/8/2016 10:30 PM
15 1 7.5 31/08/2016 12:00:00 AM 548 19352.62 Gate open-27/8/2016 10:30 PM
16 1 7.5 01/09/2016 12:00:00 AM 548 19352.62 Gate open -27/8/2016 10:30 PM
17 3 7.5 01/09/2016 4:00:01 PM 1646 58128.49 opened at 1:30 pm on 01/09/2016
18 5 7.5 01/09/2016 5:30:00 PM 2743 96869.04
19 5 7.5 02/09/2016 12:00:00 AM 2745 96939.67 Gate open-1/9/2016 5:30 PM
20 0 0 03/09/2016 2:15:00 PM 0 0 CLOSED
21 3 7.5 03/09/2016 12:00:00 AM 1642 57987.23 Gate open- 2/9/2016 10:30 PM
22 1 7.5 03/09/2016 9:30:00 AM 547 19317.31
23 5 7.5 27/08/2019 10:00:00 AM 2548 89982.62
24 5 7.62 27/08/2019 10:30:00 AM 2746 96974.99 Five Sluice gates opened (25'x10') at 10:30am Dischage passes thourgh Sluice 2746 Cumecs
25 5 7.62 28/08/2019 12:01:00 AM 2747 97010.3 five sluice gates (25'×10')since 278/2019 DIscharge passes through sluice 2746 cumecs
26 0 0 29/08/2019 7:45:00 PM 0 0 all gates are closed at 7:45pm
27 12 8.53 28/08/2019 8:00:00 AM 3136 110747.84 5 Radial gates and 7 Sluice gates opened ad 8 am today. Discharge passes through Radial and Sluice 3136.59 cumecs.
28 6 8.53 28/08/2019 7:00:00 PM 3537 124909.15
29 6 8.53 29/08/2019 12:01:00 AM 3537 124909.15 5nos.sluice gate+1no spillway gate passes discharge 3537 cumec
30 1 7.62 29/08/2019 11:50:00 AM 548 19352.62 1 sluice gate open
31 0 0 29/08/2019 7:45:00 PM 0 0 All gates are closed
32 3 7.62 01/09/2019 8:00:00 PM 1648 58199.12 3 no sluice gates are open in ( 25'×10' )size
33 3 7.62 03/09/2019 12:01:00 AM 1648 58199.12
34 3 7.62 02/09/2019 6:00:00 AM 1648 58199.12
35 3 6.62 02/09/2019 8:00:00 AM 778.7 27502.62
36 3 7.62 02/09/2019 6:30:00 PM 1648 58199.12
37 3 7.62 06/09/2019 9:00:00 AM 1654 58411.01
38 3 7.62 06/09/2019 4:00:00 PM 1654 58411.01
39 3 7.62 07/09/2019 12:01:00 AM 1654 58411.01
40 1 7.62 07/09/2019 12:00:00 PM 550.7 19447.97
41 0 0 07/09/2019 4:30:00 PM 0 0 all gates are closed
42 0 0 07/09/2019 4:00:00 PM 0 0 all gates are closed
43 5 7.62 08/09/2019 8:30:00 PM 2008 70912.52
44 5 7.62 09/09/2019 3:00:00 AM 2008 70912.52
45 10 7.62 09/09/2019 12:00:00 PM 6386 225521.59
46 12 7.62 09/09/2019 4:00:00 PM 8800 310772
47 5 7.62 10/09/2019 8:00:00 AM 2754 97257.51
48 5 7.62 11/09/2019 6:00:00 AM 2754 97257.51
49 8 7.62 11/09/2019 12:00:00 PM 5949 210088.93
50 1 7.62 12/09/2019 12:01:00 AM 553 19529.19
51 14 7.62 13/09/2019 4:00:00 PM 9071 320342.36
52 16 8.57 14/09/2019 12:01:00 AM 10675 376987.63
53 8 7.62 12/09/2019 12:00:00 PM 5282 186533.83
54 16 8.57 13/09/2019 8:00:00 PM 10675 376987.63
55 12 7.62 12/09/2019 8:00:00 PM 8068 284921.42
56 12 7.62 13/09/2019 3:00:00 AM 8068 284921.42
57 12 7.62 13/09/2019 10:40:00 AM 6729 237634.63
58 19 8.67 14/09/2019 12:00:00 PM 10093 356434.29
59 19 8.67 15/09/2019 12:00:00 PM 14557 514080.45
60 19 8.67 15/09/2019 12:00:00 PM 14557 514080.45
61 19 7.62 16/09/2019 5:00:00 PM 18407 650043.2
62 19 8.67 16/09/2019 12:01:00 AM 14557 514080.45 gate opening since 15/9/2019 at 12 noon
63 19 8.67 16/09/2019 8:00:00 AM 14806 522873.89
64 19 7.62 16/09/2019 12:00:00 PM 18406 650007.89
65 19 7.62 17/09/2019 12:01:00 AM 18407 650043.2
66 19 7.62 17/09/2019 8:35:00 AM 15124 534104.06
67 15 7.62 17/09/2019 12:00:00 PM 9202 324968.63
68 14 7.62 17/09/2019 4:00:00 PM 8783 310171.64
69 5 7.62 20/09/2019 10:03:00 AM 2564 90547.66
70 14 7.62 18/09/2019 12:01:00 AM 8783 310171.64 gate opening since 17/9/2019at4:0pm
71 1 1 19/09/2019 8:00:00 AM 515.3 18199.94
72 3 7.62 20/09/2019 12:01:00 AM 1538 54314.47 gate opening since 19/9/2019at 8:0pm
73 3 7.62 19/09/2019 8:00:00 PM 1538 54314.47
74 3 7.62 18/09/2019 10:30:00 AM 1537 54279.15
75 6 7.62 18/09/2019 7:30:00 AM 3369 118976.23 1crest gate +5 sluice gates are open
76 1 7.62 19/09/2019 4:00:00 PM 512.8 18109.53
77 1 7.62 18/09/2019 10:15:00 PM 515.3 18197.82
78 3 7.62 20/09/2019 4:00:00 PM 1536 54243.84
79 3 7.62 20/09/2019 4:00:00 PM 1536 54243.84
80 3 7.62 20/09/2019 8:00:00 PM 1536 54243.84
81 3 7.62 21/09/2019 12:01:00 AM 1536 54243.84 gate opening since 20/9/2019at8:0pm
82 3 0.25 21/09/2019 11:00:00 AM 1535 54208.52
83 1 7.62 24/09/2019 12:00:00 PM 511 18045.97
84 5 7.62 21/09/2019 9:10:00 PM 2560 90406.4
85 1 7.62 25/09/2019 8:00:00 AM 512 18081.28
86 3 7.62 24/09/2019 12:01:00 AM 1536 54243.84
87 0 0 25/09/2019 9:30:00 AM 0 0
88 5 7.62 28/09/2019 8:00:00 AM 2559 90371.08
89 8 7.62 22/09/2019 8:30:00 AM 4908 173326.02
90 5 7.62 22/09/2019 8:00:00 PM 2558 90335.77
91 3 7.62 26/09/2019 8:00:00 AM 1538 54314.47
92 5 7.62 23/09/2019 1:08:00 AM 2558 90335.77
93 8 7.62 28/09/2019 4:00:00 PM 4917 173643.85
94 3 7.62 23/09/2019 8:00:00 PM 1536 54243.84
95 3 7.62 24/09/2019 8:00:00 AM 1991 70312.16
96 3 7.62 27/09/2019 12:01:00 AM 1538 54314.47
97 3 7.62 27/09/2019 8:00:00 AM 1537 54279.15
98 3 7.62 28/09/2019 3:50:00 AM 1537 54279.15
99 8 7.62 29/09/2019 12:20:00 AM 4917 173643.85
100 5 7.62 29/09/2019 10:20:00 AM 2559 90371.08
101 0 0 30/09/2019 8:00:00 AM 0 0 all gates are closed at 6:30pm yesterday
102 1 7.62 29/09/2019 4:00:00 PM 511.7 18070.69
103 5 7.62 01/10/2019 8:00:00 AM 2568 90688.92
104 1 7.62 30/09/2019 12:01:00 AM 511.7 18070.69
105 1 7.62 30/09/2019 8:30:00 PM 509.6 17996.52
106 8 7.62 01/10/2019 12:00:00 PM 3934 138929.21
107 5 0.25 02/10/2019 10:00:00 AM 2567 90653.6
108 1 7.62 05/10/2019 12:00:00 PM 515 18187.22
109 3 7.62 06/10/2019 9:15:00 AM 1545 54561.67
110 1 7.62 14/10/2019 9:00:00 AM 516.5 18240.2
111 0 0 02/10/2019 4:00:00 PM 0 0 all gates are closed
112 3 7.62 06/10/2019 12:01:00 AM 1529 53996.63 gate opening since 5/10/2019at8:30pm
113 1 7.62 07/10/2019 12:01:00 AM 515.1 18190.76
114 1 7.62 05/10/2019 8:00:00 AM 178.7 6310.79
115 3 7.62 05/10/2019 8:30:00 PM 1529 53996.63
116 1 7.62 09/10/2019 10:00:00 AM 516 18222.54
117 1 7.61 10/10/2019 1:00:00 AM 516 18222.54
Powered by © Water Resources Department (MP). All Rights Reserved.